Time;durP1;ratioP1;P1;durP2;ratioP2;P2;SDS_P1;SDS_P2;PMS_P1;PMS_P2;Temp;Humidity;BMP_temperature;BMP_pressure;BME280_temperature;BME280_humidity;BME280_pressure;Samples;Min_cycle;Max_cycle;Signal;HPM_P1;HPM_P2
2021/12/28 00:00:28;;;;;;;0.90;0.85;;;6.10;99.90;;;;;;5157658;27;20046;-82
2021/12/28 00:02:55;;;;;;;1.08;0.10;;;6.10;99.90;;;;;;5140819;27;20093;-81
2021/12/28 00:05:23;;;;;;;0.25;0.25;;;6.10;99.90;;;;;;5158132;27;20039;-81
2021/12/28 00:07:49;;;;;;;0.38;0.38;;;6.10;99.90;;;;;;5140954;27;20108;-81
2021/12/28 00:10:17;;;;;;;0.38;0.20;;;6.10;99.90;;;;;;5140824;27;20140;-83
2021/12/28 00:12:43;;;;;;;1.05;0.75;;;6.10;99.90;;;;;;5140720;27;20038;-81
2021/12/28 00:18:03;;;;;;;2.65;0.77;;;6.20;99.90;;;;;;5157828;27;20439;-82
2021/12/28 00:20:29;;;;;;;0.45;0.28;;;6.20;99.90;;;;;;5140469;27;20087;-82
2021/12/28 00:22:55;;;;;;;1.27;0.30;;;6.20;99.90;;;;;;5140583;27;20046;-82
2021/12/28 00:25:21;;;;;;;0.32;0.20;;;6.20;99.90;;;;;;5140014;27;20086;-82
2021/12/28 00:27:47;;;;;;;1.23;0.55;;;6.20;99.90;;;;;;5140408;27;20074;-82
2021/12/28 00:30:13;;;;;;;0.55;0.30;;;6.20;99.90;;;;;;5140720;27;20034;-82
2021/12/28 00:32:39;;;;;;;0.73;0.70;;;6.20;99.90;;;;;;5140364;27;20038;-82
2021/12/28 00:35:05;;;;;;;0.30;0.20;;;6.20;99.90;;;;;;5140375;27;20382;-82
2021/12/28 00:37:31;;;;;;;0.20;0.20;;;6.20;99.90;;;;;;5140081;27;20051;-82
2021/12/28 00:39:57;;;;;;;0.35;0.20;;;6.20;99.90;;;;;;5140196;27;20046;-82
2021/12/28 00:42:23;;;;;;;0.10;0.10;;;6.20;99.90;;;;;;5157571;27;20504;-82
2021/12/28 00:44:49;;;;;;;0.10;0.10;;;6.30;99.90;;;;;;5140314;27;20470;-82
2021/12/28 00:47:16;;;;;;;0.32;0.32;;;6.20;99.90;;;;;;5157376;27;20046;-82
2021/12/28 00:49:42;;;;;;;0.10;0.10;;;6.30;99.90;;;;;;5157311;27;20050;-82
2021/12/28 00:52:07;;;;;;;1.38;0.50;;;6.30;99.90;;;;;;5139938;27;20366;-82
2021/12/28 00:54:33;;;;;;;0.30;0.20;;;6.30;99.90;;;;;;5138723;27;20035;-82
2021/12/28 00:57:01;;;;;;;0.77;0.77;;;6.30;99.90;;;;;;5140159;27;20474;-82
2021/12/28 00:59:27;;;;;;;0.15;0.15;;;6.30;99.90;;;;;;5139668;27;20045;-82
2021/12/28 01:01:53;;;;;;;2.67;0.32;;;6.30;99.90;;;;;;5156581;27;20053;-82
2021/12/28 01:04:19;;;;;;;1.10;0.38;;;6.30;99.90;;;;;;5157060;27;20062;-82
2021/12/28 01:06:45;;;;;;;2.10;1.80;;;6.40;99.90;;;;;;5156821;27;20397;-82
2021/12/28 01:09:10;;;;;;;1.65;1.00;;;6.50;99.90;;;;;;5140228;27;20454;-82
2021/12/28 01:11:36;;;;;;;1.83;0.93;;;6.40;99.90;;;;;;5157021;27;20046;-82
2021/12/28 01:14:02;;;;;;;0.25;0.20;;;6.50;99.90;;;;;;5157141;27;20103;-82
2021/12/28 01:16:28;;;;;;;0.40;0.38;;;6.50;99.90;;;;;;5156592;27;20522;-82
2021/12/28 01:18:53;;;;;;;0.10;0.10;;;6.50;99.90;;;;;;5156653;27;20523;-82
2021/12/28 01:21:19;;;;;;;10.05;0.50;;;6.50;99.90;;;;;;5139257;27;20464;-82
2021/12/28 01:23:45;;;;;;;0.70;0.57;;;6.50;99.90;;;;;;5156475;27;20081;-82
2021/12/28 01:26:10;;;;;;;0.22;0.22;;;6.60;99.90;;;;;;5139097;27;20047;-82
2021/12/28 01:28:36;;;;;;;0.00;0.00;;;6.60;99.90;;;;;;5139215;27;20049;-82
2021/12/28 01:31:03;;;;;;;0.10;0.10;;;6.60;99.90;;;;;;5156118;27;20042;-82
2021/12/28 01:33:30;;;;;;;2.20;0.30;;;6.60;99.90;;;;;;5156356;27;20187;-82
2021/12/28 01:35:56;;;;;;;1.20;0.75;;;6.60;99.90;;;;;;5156234;27;20110;-82
2021/12/28 01:38:22;;;;;;;1.13;0.95;;;6.60;99.90;;;;;;5156162;27;20482;-82
2021/12/28 01:40:48;;;;;;;0.73;0.73;;;6.70;99.90;;;;;;5138589;27;20047;-82
2021/12/28 01:43:17;;;;;;;2.08;0.75;;;6.70;99.90;;;;;;5139031;27;20048;-82
2021/12/28 01:45:49;;;;;;;2.45;1.05;;;6.70;99.90;;;;;;5138967;27;20397;-82
2021/12/28 01:48:24;;;;;;;0.10;0.10;;;6.70;99.90;;;;;;5156162;27;20051;-82
2021/12/28 01:50:53;;;;;;;0.30;0.15;;;6.70;99.90;;;;;;5156845;27;20078;-82
2021/12/28 01:53:19;;;;;;;0.00;0.00;;;6.70;99.90;;;;;;5138620;27;20107;-82
2021/12/28 01:55:48;;;;;;;0.10;0.10;;;6.70;99.90;;;;;;5155634;27;20593;-82
2021/12/28 01:58:15;;;;;;;0.55;0.40;;;6.70;99.90;;;;;;5155872;27;20047;-82
2021/12/28 02:00:43;;;;;;;0.00;0.00;;;6.70;99.90;;;;;;5138134;27;20129;-82
2021/12/28 02:03:14;;;;;;;1.55;0.57;;;6.80;99.90;;;;;;5155708;27;20096;-82
2021/12/28 02:05:42;;;;;;;0.35;0.20;;;6.80;99.90;;;;;;5138095;27;20520;-82
2021/12/28 02:08:10;;;;;;;1.00;0.38;;;6.80;99.90;;;;;;5138550;27;20430;-82
2021/12/28 02:10:36;;;;;;;0.10;0.10;;;6.80;99.90;;;;;;5137834;27;20043;-82
2021/12/28 02:13:05;;;;;;;0.35;0.20;;;6.80;99.90;;;;;;5138362;27;20049;-82
2021/12/28 02:15:31;;;;;;;0.30;0.30;;;6.80;99.90;;;;;;5138143;27;20401;-82
2021/12/28 02:17:56;;;;;;;0.00;0.00;;;6.80;99.90;;;;;;5138710;27;20080;-82
2021/12/28 02:20:22;;;;;;;0.52;0.52;;;6.80;99.90;;;;;;5138385;27;20047;-82
2021/12/28 02:22:48;;;;;;;1.90;1.08;;;6.80;99.90;;;;;;5138042;27;20059;-82
2021/12/28 02:25:15;;;;;;;0.00;0.00;;;7.20;99.90;;;;;;5155502;27;20179;-82
2021/12/28 02:27:41;;;;;;;2.00;0.50;;;6.80;99.90;;;;;;5138137;27;20054;-82
2021/12/28 02:30:11;;;;;;;0.00;0.00;;;6.70;99.90;;;;;;5137658;27;20126;-82
2021/12/28 02:32:38;;;;;;;0.20;0.20;;;6.70;99.90;;;;;;5155436;27;20589;-82
2021/12/28 02:35:07;;;;;;;0.20;0.20;;;6.70;99.90;;;;;;5137887;27;20075;-82
2021/12/28 02:37:33;;;;;;;0.32;0.30;;;6.80;99.90;;;;;;5137975;27;20049;-82
2021/12/28 02:39:58;;;;;;;0.95;0.32;;;7.00;99.90;;;;;;5137774;27;20035;-82
2021/12/28 02:42:24;;;;;;;0.50;0.32;;;6.90;99.90;;;;;;5137769;27;20489;-82
2021/12/28 02:45:07;;;;;;;0.00;0.00;;;6.80;99.90;;;;;;5155010;27;20082;-82
2021/12/28 02:47:34;;;;;;;1.45;1.30;;;6.80;99.90;;;;;;5138056;27;20057;-82
2021/12/28 02:50:01;;;;;;;0.82;0.20;;;6.90;99.90;;;;;;5137569;27;20068;-82
2021/12/28 02:52:27;;;;;;;1.67;0.40;;;6.90;99.90;;;;;;5137730;27;20043;-82
2021/12/28 02:54:52;;;;;;;0.28;0.10;;;6.90;99.90;;;;;;5137612;27;20054;-83
2021/12/28 02:57:18;;;;;;;0.25;0.22;;;6.90;99.90;;;;;;5137567;27;20126;-82
2021/12/28 02:59:49;;;;;;;0.40;0.30;;;6.90;99.90;;;;;;5137302;27;20142;-82
2021/12/28 03:02:16;;;;;;;0.68;0.00;;;6.90;99.90;;;;;;5154480;27;20064;-82
2021/12/28 03:04:42;;;;;;;0.63;0.28;;;6.80;99.90;;;;;;5154309;27;20049;-82
2021/12/28 03:07:08;;;;;;;0.15;0.05;;;6.80;99.90;;;;;;5154604;27;20125;-82
2021/12/28 03:09:34;;;;;;;0.70;0.10;;;6.70;99.90;;;;;;5136704;27;20566;-82
2021/12/28 03:12:00;;;;;;;0.22;0.22;;;6.60;99.90;;;;;;5137354;27;20133;-82
2021/12/28 03:14:26;;;;;;;0.00;0.00;;;6.60;99.90;;;;;;5137479;27;20081;-82
2021/12/28 03:16:52;;;;;;;0.00;0.00;;;6.60;99.90;;;;;;5154500;27;20035;-82
2021/12/28 03:19:17;;;;;;;0.10;0.10;;;6.60;99.90;;;;;;5136557;27;20129;-82
2021/12/28 03:21:43;;;;;;;0.77;0.77;;;6.60;99.90;;;;;;5154636;27;20050;-82
2021/12/28 03:24:09;;;;;;;0.20;0.15;;;6.50;99.90;;;;;;5136652;27;20061;-82
2021/12/28 03:26:35;;;;;;;0.10;0.10;;;6.40;99.90;;;;;;5137406;27;20050;-82
2021/12/28 03:29:02;;;;;;;2.30;0.40;;;6.40;99.90;;;;;;5137006;27;20500;-82
2021/12/28 03:31:28;;;;;;;0.63;0.30;;;6.30;99.90;;;;;;5137031;27;20039;-82
2021/12/28 03:33:55;;;;;;;1.65;0.60;;;6.40;99.90;;;;;;5154313;27;20035;-82
2021/12/28 03:36:23;;;;;;;1.25;0.30;;;6.20;99.90;;;;;;5136803;27;20530;-82
2021/12/28 03:38:49;;;;;;;2.53;0.85;;;6.30;99.90;;;;;;5136943;27;20042;-82
2021/12/28 03:41:17;;;;;;;0.17;0.17;;;6.30;99.90;;;;;;5154214;27;20474;-82
2021/12/28 03:43:45;;;;;;;0.65;0.52;;;6.20;99.90;;;;;;5137441;27;20041;-82
2021/12/28 03:46:12;;;;;;;0.10;0.10;;;6.20;99.90;;;;;;5136952;27;20486;-82
2021/12/28 03:48:38;;;;;;;0.10;0.10;;;6.20;99.90;;;;;;5136923;27;20554;-82
2021/12/28 03:51:06;;;;;;;0.10;0.10;;;6.10;99.90;;;;;;5136884;27;20046;-82
2021/12/28 03:53:32;;;;;;;0.10;0.10;;;6.10;99.90;;;;;;5154142;27;20047;-82
2021/12/28 03:55:58;;;;;;;0.63;0.50;;;6.10;99.90;;;;;;5154190;27;20366;-82
2021/12/28 03:58:23;;;;;;;0.35;0.32;;;6.10;99.90;;;;;;5136776;27;20038;-82
2021/12/28 04:00:50;;;;;;;0.85;0.35;;;6.10;99.90;;;;;;5136226;27;20390;-83
2021/12/28 04:03:16;;;;;;;0.00;0.00;;;6.20;99.90;;;;;;5136942;27;20050;-82
2021/12/28 04:05:44;;;;;;;0.10;0.10;;;6.20;99.90;;;;;;5153733;27;20039;-82
2021/12/28 04:08:16;;;;;;;0.40;0.30;;;6.10;99.90;;;;;;5136932;27;20046;-82
2021/12/28 04:11:01;;;;;;;0.00;0.00;;;6.20;99.90;;;;;;5136817;27;20043;-82
2021/12/28 04:13:27;;;;;;;6.88;0.65;;;6.20;99.90;;;;;;5154073;27;20046;-82
2021/12/28 04:15:52;;;;;;;1.17;0.43;;;6.20;99.90;;;;;;5136425;27;20108;-82
2021/12/28 04:18:19;;;;;;;0.63;0.43;;;6.20;99.90;;;;;;5153835;27;20042;-82
2021/12/28 04:20:45;;;;;;;2.45;0.38;;;6.20;99.90;;;;;;5136237;27;20371;-82
2021/12/28 04:23:11;;;;;;;1.02;0.98;;;6.30;99.90;;;;;;5136799;27;20265;-82
2021/12/28 04:25:37;;;;;;;0.40;0.40;;;6.20;99.90;;;;;;5136598;27;20039;-82
2021/12/28 04:28:02;;;;;;;0.47;0.38;;;6.20;99.90;;;;;;5136030;27;20055;-82
2021/12/28 04:30:29;;;;;;;1.23;0.45;;;6.20;99.90;;;;;;5139897;27;20050;-82
2021/12/28 04:32:54;;;;;;;0.98;0.73;;;6.40;99.90;;;;;;5157329;27;20042;-82
2021/12/28 04:35:20;;;;;;;1.05;0.40;;;6.30;99.90;;;;;;5157785;27;20039;-82
2021/12/28 04:37:46;;;;;;;0.80;0.20;;;6.30;99.90;;;;;;5157919;27;20478;-82
2021/12/28 04:40:12;;;;;;;0.17;0.17;;;6.30;99.90;;;;;;5139609;27;20485;-82
2021/12/28 04:42:40;;;;;;;0.20;0.20;;;6.30;99.90;;;;;;5157529;27;20053;-82
2021/12/28 04:45:08;;;;;;;0.30;0.30;;;6.20;99.90;;;;;;5157344;27;20047;-82
2021/12/28 04:47:34;;;;;;;1.13;0.45;;;6.30;99.90;;;;;;5157233;27;20089;-82
2021/12/28 04:50:00;;;;;;;0.32;0.10;;;6.30;99.90;;;;;;5157457;27;20082;-82
2021/12/28 04:52:28;;;;;;;0.63;0.63;;;6.20;99.90;;;;;;5157184;27;20050;-82
2021/12/28 04:54:54;;;;;;;0.60;0.40;;;6.20;99.90;;;;;;5139298;27;20107;-82
2021/12/28 04:57:19;;;;;;;0.35;0.13;;;6.20;99.90;;;;;;5157189;27;20051;-82
2021/12/28 04:59:45;;;;;;;0.17;0.10;;;6.20;99.90;;;;;;5139589;27;20038;-82
2021/12/28 05:02:11;;;;;;;1.15;0.63;;;6.20;99.90;;;;;;5139433;27;20063;-82
2021/12/28 05:04:37;;;;;;;4.55;0.15;;;6.20;99.90;;;;;;5139719;27;20058;-82
2021/12/28 05:07:03;;;;;;;0.25;0.10;;;6.20;99.90;;;;;;5139532;27;20042;-82
2021/12/28 05:09:28;;;;;;;0.03;0.03;;;6.20;99.90;;;;;;5139644;27;20089;-82
2021/12/28 05:11:54;;;;;;;2.83;0.60;;;6.20;99.90;;;;;;5139826;27;20379;-82
2021/12/28 05:14:20;;;;;;;0.75;0.30;;;6.20;99.90;;;;;;5156245;27;20042;-82
2021/12/28 05:16:46;;;;;;;0.68;0.20;;;6.10;99.90;;;;;;5139232;27;20050;-82
2021/12/28 05:19:14;;;;;;;2.17;0.57;;;6.20;99.90;;;;;;5156622;27;20062;-82
2021/12/28 05:21:40;;;;;;;0.30;0.30;;;6.20;99.90;;;;;;5139002;27;20060;-82
2021/12/28 05:24:06;;;;;;;4.53;0.55;;;6.20;99.90;;;;;;5139369;27;20137;-82
2021/12/28 05:26:32;;;;;;;0.10;0.10;;;6.20;99.90;;;;;;5139295;27;20050;-82
2021/12/28 05:28:58;;;;;;;0.10;0.10;;;6.20;99.90;;;;;;5156537;27;20099;-82
2021/12/28 05:31:25;;;;;;;0.90;0.70;;;6.20;99.90;;;;;;5155382;27;20057;-83
2021/12/28 05:33:52;;;;;;;1.75;0.40;;;6.20;99.90;;;;;;5155430;27;20137;-82
2021/12/28 05:36:19;;;;;;;0.47;0.47;;;6.20;99.90;;;;;;5138668;27;20055;-82
2021/12/28 05:38:44;;;;;;;0.40;0.05;;;6.10;99.90;;;;;;5139021;27;20053;-82
2021/12/28 05:41:10;;;;;;;0.63;0.10;;;6.20;99.90;;;;;;5138430;27;20486;-82
2021/12/28 05:43:36;;;;;;;1.73;0.52;;;6.10;99.90;;;;;;5156129;27;20362;-82
2021/12/28 05:46:02;;;;;;;1.10;0.98;;;6.10;99.90;;;;;;5139544;27;20064;-82
2021/12/28 05:48:28;;;;;;;1.08;0.77;;;6.10;99.90;;;;;;5156475;27;20042;-82
2021/12/28 05:50:54;;;;;;;1.35;0.52;;;6.10;99.90;;;;;;5156169;27;20083;-82
2021/12/28 05:53:19;;;;;;;0.60;0.50;;;6.10;99.90;;;;;;5155642;27;20082;-82
2021/12/28 05:55:45;;;;;;;0.25;0.13;;;6.10;99.90;;;;;;5154828;27;20051;-82
2021/12/28 05:58:11;;;;;;;0.15;0.15;;;6.00;99.90;;;;;;5155842;27;20148;-83
2021/12/28 06:00:37;;;;;;;0.30;0.30;;;6.00;99.90;;;;;;5155965;27;20049;-82
2021/12/28 06:03:03;;;;;;;0.15;0.00;;;6.00;99.90;;;;;;5155687;27;20406;-82
2021/12/28 06:05:29;;;;;;;0.00;0.00;;;6.00;99.90;;;;;;5156103;27;20046;-82
2021/12/28 06:07:55;;;;;;;0.20;0.20;;;6.00;99.90;;;;;;5138473;27;20046;-82
2021/12/28 06:10:20;;;;;;;0.40;0.40;;;6.00;99.90;;;;;;5138677;27;20038;-82
2021/12/28 06:12:46;;;;;;;1.35;1.23;;;6.00;99.90;;;;;;5155551;27;20367;-82
2021/12/28 06:15:12;;;;;;;0.43;0.40;;;6.00;99.90;;;;;;5138043;27;20093;-81
2021/12/28 06:17:38;;;;;;;0.30;0.30;;;6.00;99.90;;;;;;5155487;27;20038;-82
2021/12/28 06:20:05;;;;;;;1.48;0.38;;;5.90;99.90;;;;;;5138135;27;20038;-82
2021/12/28 06:22:31;;;;;;;3.92;0.75;;;5.90;99.90;;;;;;5155276;27;20067;-81
2021/12/28 06:24:57;;;;;;;0.10;0.00;;;6.00;99.90;;;;;;5138191;27;20095;-81
2021/12/28 06:27:23;;;;;;;1.02;0.43;;;6.00;99.90;;;;;;5155295;27;20378;-82
2021/12/28 06:29:49;;;;;;;0.05;0.05;;;6.00;99.90;;;;;;5138026;27;20154;-82
2021/12/28 06:32:15;;;;;;;0.30;0.30;;;5.90;99.90;;;;;;5155210;27;20046;-82
2021/12/28 06:34:41;;;;;;;0.20;0.20;;;6.00;99.90;;;;;;5137487;27;20406;-82
2021/12/28 06:37:06;;;;;;;0.45;0.45;;;6.00;99.90;;;;;;5155203;27;20039;-82
2021/12/28 06:39:32;;;;;;;0.05;0.05;;;6.00;99.90;;;;;;5137684;27;20034;-82
2021/12/28 06:41:58;;;;;;;0.43;0.20;;;6.00;99.90;;;;;;5154972;27;20039;-82
2021/12/28 06:44:24;;;;;;;9.50;2.55;;;6.00;99.90;;;;;;5117312;27;20185;-81
2021/12/28 06:46:50;;;;;;;0.30;0.30;;;6.00;99.90;;;;;;5116622;27;20051;-82
2021/12/28 06:49:16;;;;;;;0.10;0.10;;;6.00;99.90;;;;;;5117051;27;20397;-82
2021/12/28 06:51:42;;;;;;;0.10;0.00;;;5.90;99.90;;;;;;5116933;27;20049;-81
2021/12/28 06:54:08;;;;;;;0.00;0.00;;;5.90;99.90;;;;;;5116497;27;20043;-81
2021/12/28 06:56:34;;;;;;;1.00;0.52;;;5.90;99.90;;;;;;5116868;27;20047;-81
2021/12/28 06:59:00;;;;;;;0.10;0.10;;;5.90;99.90;;;;;;5133888;27;20040;-82
2021/12/28 07:01:26;;;;;;;0.52;0.20;;;6.00;99.90;;;;;;5116777;27;20046;-83
2021/12/28 07:03:52;;;;;;;0.00;0.00;;;5.90;99.90;;;;;;5119828;27;20447;-83
2021/12/28 07:06:18;;;;;;;0.15;0.15;;;5.90;99.90;;;;;;5133247;27;20507;-83
2021/12/28 07:08:44;;;;;;;0.00;0.00;;;5.90;99.90;;;;;;5154149;27;20397;-83
2021/12/28 07:11:10;;;;;;;0.00;0.00;;;5.90;99.90;;;;;;5137369;27;20046;-83
2021/12/28 07:13:36;;;;;;;1.75;0.52;;;5.90;99.90;;;;;;5137648;27;20038;-83
2021/12/28 07:16:02;;;;;;;0.65;0.35;;;6.20;99.90;;;;;;5153875;27;20039;-85
2021/12/28 07:18:28;;;;;;;0.63;0.10;;;5.90;99.90;;;;;;5137143;27;20393;-85
2021/12/28 07:20:54;;;;;;;3.30;0.10;;;6.00;99.90;;;;;;5154503;27;20070;-83
2021/12/28 07:23:20;;;;;;;0.50;0.10;;;6.10;99.90;;;;;;5137180;27;20082;-83
2021/12/28 07:25:46;;;;;;;0.35;0.10;;;6.00;99.90;;;;;;5137552;27;20138;-84
2021/12/28 07:28:12;;;;;;;0.00;0.00;;;6.00;99.90;;;;;;5137101;27;20047;-84
2021/12/28 07:30:39;;;;;;;0.05;0.05;;;6.00;99.90;;;;;;5136971;27;20474;-83
2021/12/28 07:33:05;;;;;;;0.22;0.20;;;6.00;99.90;;;;;;5136655;27;20076;-83
2021/12/28 07:35:31;;;;;;;0.00;0.00;;;6.00;99.90;;;;;;5137182;27;20470;-83
2021/12/28 07:37:56;;;;;;;0.08;0.00;;;6.40;99.90;;;;;;5137069;27;20068;-83
2021/12/28 07:40:22;;;;;;;0.30;0.30;;;6.00;99.90;;;;;;5136986;27;20470;-84
2021/12/28 07:42:48;;;;;;;0.10;0.10;;;6.00;99.90;;;;;;5136907;27;20047;-85
2021/12/28 07:45:17;;;;;;;1.27;0.70;;;6.00;99.90;;;;;;5154219;27;20053;-85
2021/12/28 07:47:43;;;;;;;0.45;0.00;;;6.10;99.90;;;;;;5137037;27;20145;-85
2021/12/28 07:50:12;;;;;;;0.00;0.00;;;6.00;99.90;;;;;;5137326;27;20039;-85
2021/12/28 07:52:38;;;;;;;0.85;0.28;;;6.00;99.90;;;;;;5136723;27;20046;-86
2021/12/28 07:55:06;;;;;;;0.45;0.45;;;6.00;99.90;;;;;;5136951;27;20095;-84
2021/12/28 07:57:32;;;;;;;0.05;0.05;;;6.00;99.90;;;;;;5151176;27;20126;-83
2021/12/28 07:59:58;;;;;;;1.13;0.52;;;6.10;99.90;;;;;;5150560;27;20501;-83
2021/12/28 08:02:23;;;;;;;0.10;0.10;;;6.00;99.90;;;;;;5153676;27;20046;-83
2021/12/28 08:04:49;;;;;;;0.43;0.08;;;6.10;99.90;;;;;;5156232;27;20129;-83
2021/12/28 08:07:15;;;;;;;0.32;0.10;;;6.00;99.90;;;;;;5157466;27;20058;-83
2021/12/28 08:09:41;;;;;;;0.28;0.28;;;6.00;99.90;;;;;;5140771;27;20516;-83
2021/12/28 08:12:07;;;;;;;0.05;0.00;;;6.10;99.90;;;;;;5140694;27;20461;-83
2021/12/28 08:14:33;;;;;;;0.00;0.00;;;6.10;99.90;;;;;;5157684;27;20473;-83
2021/12/28 08:16:58;;;;;;;0.30;0.30;;;6.10;99.90;;;;;;5140187;27;20055;-83
2021/12/28 08:19:24;;;;;;;0.52;0.20;;;6.10;99.90;;;;;;5140444;27;20046;-83
2021/12/28 08:21:50;;;;;;;0.00;0.00;;;6.10;99.90;;;;;;5140608;27;20054;-83
2021/12/28 08:24:16;;;;;;;0.15;0.15;;;6.20;99.90;;;;;;5140137;27;20078;-83
2021/12/28 08:26:42;;;;;;;0.00;0.00;;;6.20;99.90;;;;;;5141039;27;20047;-83
2021/12/28 08:29:08;;;;;;;0.00;0.00;;;6.20;99.90;;;;;;5140402;27;20058;-82
2021/12/28 08:31:34;;;;;;;0.50;0.38;;;6.00;99.90;;;;;;5157542;27;20043;-83
2021/12/28 08:34:03;;;;;;;0.63;0.40;;;6.20;99.90;;;;;;5140378;27;20038;-86
2021/12/28 08:36:29;;;;;;;2.17;0.85;;;6.30;99.90;;;;;;5140276;27;20054;-85
2021/12/28 08:38:55;;;;;;;0.10;0.10;;;6.30;99.90;;;;;;5140808;27;20053;-84
2021/12/28 08:41:21;;;;;;;1.95;0.95;;;6.30;99.90;;;;;;5158146;27;20042;-84
2021/12/28 08:43:47;;;;;;;0.00;0.00;;;6.60;99.90;;;;;;5140164;27;20053;-84
2021/12/28 08:46:13;;;;;;;0.20;0.20;;;6.30;99.90;;;;;;5140006;27;20504;-83
2021/12/28 08:48:39;;;;;;;0.28;0.20;;;6.40;99.90;;;;;;5140067;27;20046;-83
2021/12/28 08:51:05;;;;;;;0.13;0.13;;;6.40;99.90;;;;;;5139933;27;20113;-85
2021/12/28 08:53:31;;;;;;;0.10;0.10;;;6.50;99.90;;;;;;5139889;27;20145;-83
2021/12/28 08:55:57;;;;;;;0.00;0.00;;;6.50;99.90;;;;;;5140487;27;20137;-83
2021/12/28 08:58:22;;;;;;;0.17;0.17;;;6.50;99.90;;;;;;5139825;27;20390;-83
2021/12/28 09:00:48;;;;;;;5.38;0.45;;;6.50;99.90;;;;;;5139616;27;20090;-84
2021/12/28 09:03:14;;;;;;;0.85;0.77;;;6.50;99.90;;;;;;5139462;27;20059;-84
2021/12/28 09:05:39;;;;;;;0.10;0.03;;;6.70;99.90;;;;;;5157796;27;20035;-83
2021/12/28 09:08:09;;;;;;;1.48;0.00;;;6.60;99.90;;;;;;5156818;27;20439;-83
2021/12/28 09:10:35;;;;;;;0.00;0.00;;;6.90;99.90;;;;;;5139750;27;20446;-84
2021/12/28 09:13:02;;;;;;;0.10;0.10;;;6.70;99.90;;;;;;5139492;27;20508;-83
2021/12/28 09:15:28;;;;;;;0.32;0.20;;;6.60;99.90;;;;;;5138598;27;20450;-83
2021/12/28 09:17:54;;;;;;;0.82;0.45;;;6.70;99.90;;;;;;5139043;27;20038;-83
2021/12/28 09:20:22;;;;;;;0.20;0.20;;;6.80;99.90;;;;;;5139123;27;20126;-83
2021/12/28 09:22:51;;;;;;;0.00;0.00;;;6.90;99.90;;;;;;5139291;27;20095;-83
2021/12/28 09:25:18;;;;;;;0.30;0.00;;;7.00;99.90;;;;;;5139305;27;20047;-83
2021/12/28 09:27:44;;;;;;;0.05;0.05;;;7.00;99.90;;;;;;5139466;27;20042;-83
2021/12/28 09:30:11;;;;;;;0.30;0.28;;;7.10;99.90;;;;;;5139072;27;20039;-82
2021/12/28 09:32:37;;;;;;;0.08;0.08;;;7.10;99.90;;;;;;5139324;27;20093;-82
2021/12/28 09:35:03;;;;;;;1.17;0.25;;;7.10;99.90;;;;;;5156316;27;20474;-82
2021/12/28 09:37:29;;;;;;;0.10;0.10;;;7.20;99.90;;;;;;5156183;27;20478;-82
2021/12/28 09:39:57;;;;;;;0.57;0.00;;;7.20;99.90;;;;;;5138705;27;20043;-82
2021/12/28 09:42:24;;;;;;;0.90;0.20;;;7.20;99.90;;;;;;5139243;27;20510;-82
2021/12/28 09:44:51;;;;;;;0.10;0.00;;;7.30;99.90;;;;;;5138919;27;20050;-83
2021/12/28 09:47:18;;;;;;;0.20;0.20;;;7.30;99.90;;;;;;5138894;27;20047;-83
2021/12/28 09:49:44;;;;;;;0.20;0.10;;;7.40;99.90;;;;;;5138230;27;20626;-82
2021/12/28 09:52:12;;;;;;;0.10;0.10;;;7.50;99.90;;;;;;5138769;27;20477;-82
2021/12/28 09:54:38;;;;;;;0.22;0.22;;;7.60;99.90;;;;;;5139211;27;20054;-81
2021/12/28 09:57:04;;;;;;;0.00;0.00;;;7.40;99.90;;;;;;5138844;27;20216;-82
2021/12/28 09:59:31;;;;;;;0.30;0.13;;;7.50;99.90;;;;;;5138516;27;20090;-81
2021/12/28 10:02:08;;;;;;;0.10;0.10;;;7.70;99.90;;;;;;5155585;27;20050;-83
2021/12/28 10:04:35;;;;;;;0.43;0.10;;;7.60;99.90;;;;;;5138259;27;20051;-82
2021/12/28 10:07:20;;;;;;;1.58;0.63;;;7.60;99.90;;;;;;5138571;27;20056;-82
2021/12/28 10:09:45;;;;;;;0.00;0.00;;;7.60;99.90;;;;;;5138330;27;20038;-82
2021/12/28 10:12:11;;;;;;;5.65;0.45;;;7.70;99.90;;;;;;5138341;27;20043;-82
2021/12/28 10:14:37;;;;;;;0.32;0.20;;;7.70;99.90;;;;;;5155468;27;20386;-83
2021/12/28 10:17:06;;;;;;;0.00;0.00;;;7.70;99.90;;;;;;5138087;27;20050;-82
2021/12/28 10:19:35;;;;;;;3.00;1.40;;;7.70;99.90;;;;;;5138034;27;20042;-82
2021/12/28 10:22:20;;;;;;;0.00;0.00;;;7.80;99.90;;;;;;5138518;27;20388;-82
2021/12/28 10:24:47;;;;;;;0.00;0.00;;;7.80;99.90;;;;;;5156026;27;20085;-82
2021/12/28 10:27:24;;;;;;;1.08;0.13;;;7.80;99.90;;;;;;5138289;27;20082;-84
2021/12/28 10:29:50;;;;;;;0.30;0.10;;;7.70;99.90;;;;;;5124511;27;20402;-84
2021/12/28 10:32:19;;;;;;;0.00;0.00;;;7.70;99.90;;;;;;5117365;27;20116;-84
2021/12/28 10:34:55;;;;;;;0.15;0.15;;;7.70;99.90;;;;;;5120976;27;20135;-84
2021/12/28 10:37:25;;;;;;;0.20;0.20;;;7.70;99.90;;;;;;5137233;27;20566;-84
2021/12/28 10:39:54;;;;;;;1.88;0.60;;;7.60;99.90;;;;;;5154821;27;20423;-84
2021/12/28 10:42:39;;;;;;;0.70;0.13;;;7.70;99.90;;;;;;5155343;27;20485;-84
2021/12/28 10:45:08;;;;;;;0.00;0.00;;;7.70;99.90;;;;;;5138417;27;20042;-84
2021/12/28 10:47:34;;;;;;;0.13;0.00;;;7.70;99.90;;;;;;5152393;27;20040;-85
2021/12/28 10:50:07;;;;;;;0.05;0.05;;;7.70;99.90;;;;;;5126923;27;20046;-84
2021/12/28 10:52:38;;;;;;;0.70;0.65;;;7.70;99.90;;;;;;5137777;27;20082;-83
2021/12/28 10:55:25;;;;;;;0.43;0.43;;;7.70;99.90;;;;;;5137183;27;20054;-83
2021/12/28 10:57:51;;;;;;;0.00;0.00;;;7.70;99.90;;;;;;5137767;27;20106;-83
2021/12/28 11:00:26;;;;;;;0.03;0.03;;;7.80;99.90;;;;;;5137326;27;20474;-83
2021/12/28 11:03:17;;;;;;;0.65;0.30;;;7.80;99.90;;;;;;5137038;27;20050;-84
2021/12/28 11:05:48;;;;;;;0.00;0.00;;;7.80;99.90;;;;;;5137624;27;20046;-82
2021/12/28 11:08:14;;;;;;;1.38;0.40;;;7.80;99.90;;;;;;5137520;27;20046;-83
2021/12/28 11:10:47;;;;;;;0.10;0.10;;;7.80;99.90;;;;;;5137274;27;20046;-83
2021/12/28 11:13:13;;;;;;;0.00;0.00;;;7.80;99.90;;;;;;5137638;27;20045;-83
2021/12/28 11:15:45;;;;;;;0.03;0.00;;;7.80;99.90;;;;;;5137495;27;20043;-83
2021/12/28 11:18:18;;;;;;;0.00;0.00;;;7.90;99.90;;;;;;5136641;27;20142;-83
2021/12/28 11:20:45;;;;;;;0.05;0.05;;;7.80;99.90;;;;;;5137120;27;20053;-85
2021/12/28 11:23:13;;;;;;;1.20;1.10;;;8.10;99.90;;;;;;5129504;27;20035;-84
2021/12/28 11:25:39;;;;;;;0.47;0.47;;;7.90;99.90;;;;;;5117332;28;20039;-84
2021/12/28 11:28:32;;;;;;;2.72;0.55;;;7.90;99.90;;;;;;5116198;27;20062;-85
2021/12/28 11:31:19;;;;;;;1.42;0.77;;;7.90;99.90;;;;;;5112526;28;20191;-90
2021/12/28 11:34:14;;;;;;;0.10;0.10;;;7.90;99.90;;;;;;5118033;28;20051;-91
2021/12/28 11:37:18;;;;;;;1.70;0.65;;;7.80;99.90;;;;;;5117419;28;20093;-95
2021/12/28 11:40:33;;;;;;;0.00;0.00;;;7.90;99.90;;;;;;5119867;27;20073;-95
2021/12/28 11:42:59;;;;;;;0.10;0.00;;;7.90;99.90;;;;;;5102389;27;20047;-94
2021/12/28 11:45:40;;;;;;;0.00;0.00;;;8.00;99.90;;;;;;5121154;27;20044;-92
2021/12/28 11:48:06;;;;;;;1.00;0.30;;;8.00;99.90;;;;;;5120665;27;20061;-93
2021/12/28 11:50:32;;;;;;;0.00;0.00;;;8.10;99.90;;;;;;5131289;27;20561;-92
2021/12/28 11:52:58;;;;;;;1.35;0.63;;;8.10;99.90;;;;;;5140856;27;20046;-90
2021/12/28 11:55:24;;;;;;;1.02;0.43;;;8.00;99.90;;;;;;5142149;27;20162;-89
2021/12/28 11:57:52;;;;;;;0.00;0.00;;;8.10;99.90;;;;;;5141933;27;20078;-88
2021/12/28 12:00:20;;;;;;;0.73;0.00;;;8.10;99.90;;;;;;5158445;27;20035;-90
2021/12/28 12:02:49;;;;;;;0.28;0.20;;;8.50;99.90;;;;;;5140727;27;20058;-89
2021/12/28 12:05:25;;;;;;;7.47;0.38;;;7.70;99.90;;;;;;5141769;27;20469;-88
2021/12/28 12:08:12;;;;;;;0.00;0.00;;;8.10;99.90;;;;;;5141845;27;20095;-88
2021/12/28 12:10:44;;;;;;;0.10;0.10;;;8.20;99.90;;;;;;5141365;27;20053;-88
2021/12/28 12:13:23;;;;;;;0.20;0.20;;;8.10;99.90;;;;;;5159116;27;20046;-87
2021/12/28 12:15:54;;;;;;;0.00;0.00;;;8.10;99.90;;;;;;5140855;27;20049;-88
2021/12/28 12:18:23;;;;;;;0.00;0.00;;;8.30;99.90;;;;;;5140322;27;20054;-89
2021/12/28 12:20:52;;;;;;;0.00;0.00;;;8.20;99.90;;;;;;5140448;27;20129;-88
2021/12/28 12:23:26;;;;;;;0.70;0.45;;;8.20;99.90;;;;;;5157800;27;20115;-88
2021/12/28 12:25:57;;;;;;;;;;;8.30;99.90;;;;;;5140557;27;20064;-87
2021/12/28 12:28:32;;;;;;;0.05;0.05;;;8.20;99.90;;;;;;5140165;27;19919;-87
2021/12/28 12:30:58;;;;;;;0.05;0.05;;;8.40;99.90;;;;;;5140459;27;20043;-87
2021/12/28 12:33:37;;;;;;;0.25;0.20;;;8.30;99.90;;;;;;5158198;27;20138;-89
2021/12/28 12:36:04;;;;;;;0.10;0.10;;;8.30;99.90;;;;;;5140350;27;20142;-87
2021/12/28 12:38:31;;;;;;;14.60;1.05;;;8.30;99.90;;;;;;5157456;27;20051;-87
2021/12/28 12:41:14;;;;;;;0.10;0.10;;;8.60;99.90;;;;;;5141007;27;20050;-86
2021/12/28 12:43:50;;;;;;;0.00;0.00;;;8.30;99.90;;;;;;5139593;27;20063;-87
2021/12/28 12:46:31;;;;;;;0.00;0.00;;;8.30;99.90;;;;;;5157503;27;20045;-88
2021/12/28 12:49:09;;;;;;;0.00;0.00;;;8.40;99.90;;;;;;5140972;27;20053;-85
2021/12/28 12:51:43;;;;;;;0.00;0.00;;;8.40;99.90;;;;;;5140369;27;20046;-88
2021/12/28 12:54:19;;;;;;;1.30;0.10;;;8.40;99.90;;;;;;5140168;27;20050;-85
2021/12/28 12:57:02;;;;;;;0.00;0.00;;;8.30;99.90;;;;;;5140072;27;20512;-88
2021/12/28 13:00:00;;;;;;;0.00;0.00;;;8.40;99.90;;;;;;5140516;27;20050;-93
2021/12/28 13:02:36;;;;;;;0.00;0.00;;;8.40;99.90;;;;;;5139993;27;20047;-93
2021/12/28 13:05:19;;;;;;;0.03;0.03;;;8.60;99.90;;;;;;5140839;27;20477;-91